createdAt,value
2022-11-26T00:02:31.159Z,6.40
2022-11-26T00:04:59.577Z,6.40
2022-11-26T00:07:30.882Z,6.40
2022-11-26T00:09:59.823Z,6.40
2022-11-26T00:12:33.378Z,6.40
2022-11-26T00:15:31.207Z,6.40
2022-11-26T00:17:58.629Z,6.40
2022-11-26T00:20:31.281Z,6.40
2022-11-26T00:23:03.078Z,4.90
2022-11-26T00:25:44.937Z,6.50
2022-11-26T00:28:29.804Z,6.50
2022-11-26T00:31:01.578Z,6.50
2022-11-26T00:33:30.504Z,6.50
2022-11-26T00:36:19.815Z,6.50
2022-11-26T00:38:58.007Z,6.50
2022-11-26T00:41:32.990Z,6.50
2022-11-26T00:44:00.388Z,6.50
2022-11-26T00:46:27.751Z,6.50
2022-11-26T00:48:54.770Z,6.50
2022-11-26T00:51:28.079Z,6.50
2022-11-26T00:54:01.610Z,6.50
2022-11-26T00:56:35.108Z,6.40
2022-11-26T00:59:04.946Z,6.50
2022-11-26T01:01:32.819Z,6.50
2022-11-26T01:04:00.054Z,6.40
2022-11-26T01:06:34.987Z,6.40
2022-11-26T01:09:07.186Z,6.40
2022-11-26T01:14:01.810Z,6.40
2022-11-26T01:16:39.196Z,6.40
2022-11-26T01:19:10.299Z,6.40
2022-11-26T01:21:37.528Z,6.50
2022-11-26T01:24:05.097Z,6.50
2022-11-26T01:26:43.900Z,6.50
2022-11-26T01:29:18.532Z,6.50
2022-11-26T01:31:46.651Z,6.50
2022-11-26T01:34:14.188Z,6.50
2022-11-26T01:39:22.956Z,6.50
2022-11-26T01:42:29.092Z,6.40
2022-11-26T01:44:56.088Z,6.40
2022-11-26T01:47:29.944Z,6.50
2022-11-26T01:50:28.159Z,6.40
2022-11-26T01:53:06.945Z,6.40
2022-11-26T01:55:57.954Z,6.40
2022-11-26T01:58:40.004Z,6.40
2022-11-26T02:01:08.172Z,6.40
2022-11-26T02:03:48.868Z,6.40
2022-11-26T02:06:24.732Z,6.50
2022-11-26T02:11:24.098Z,6.40
2022-11-26T02:13:59.493Z,6.40
2022-11-26T02:16:57.156Z,6.40
2022-11-26T02:20:43.916Z,6.50
2022-11-26T02:23:45.265Z,6.50
2022-11-26T02:27:19.509Z,6.40
2022-11-26T02:30:12.157Z,6.50
2022-11-26T02:33:06.535Z,6.50
2022-11-26T02:35:46.754Z,6.50
2022-11-26T02:38:24.502Z,6.50
2022-11-26T02:40:52.956Z,6.50
2022-11-26T02:43:20.673Z,6.50
2022-11-26T02:45:55.715Z,6.50
2022-11-26T02:48:34.741Z,6.50
2022-11-26T02:51:22.557Z,6.50
2022-11-26T02:53:52.762Z,6.50
2022-11-26T02:56:26.730Z,6.50
2022-11-26T02:58:56.220Z,6.50
2022-11-26T03:02:03.170Z,6.50
2022-11-26T03:04:41.331Z,6.50
2022-11-26T03:07:14.515Z,6.50
2022-11-26T03:09:58.977Z,6.50
2022-11-26T03:12:26.572Z,6.50
2022-11-26T03:17:21.798Z,6.50
2022-11-26T03:19:48.834Z,6.50
2022-11-26T03:22:16.379Z,6.50
2022-11-26T03:24:43.891Z,6.50
2022-11-26T03:27:13.781Z,6.50
2022-11-26T03:29:40.782Z,6.50
2022-11-26T03:34:35.389Z,6.50
2022-11-26T03:44:24.767Z,6.50
2022-11-26T03:46:51.691Z,6.50
2022-11-26T03:49:18.672Z,6.50
2022-11-26T03:54:13.067Z,6.50
2022-11-26T03:56:40.038Z,6.50
2022-11-26T03:59:07.513Z,6.50
2022-11-26T04:01:34.561Z,6.50
2022-11-26T04:04:01.601Z,6.50
2022-11-26T04:06:29.335Z,6.50
2022-11-26T04:11:23.755Z,6.50
2022-11-26T04:16:18.235Z,6.50
2022-11-26T04:21:12.608Z,6.50
2022-11-26T04:23:39.780Z,6.50
2022-11-26T04:26:06.828Z,6.50
2022-11-26T04:28:33.957Z,6.40
2022-11-26T04:31:01.041Z,6.50
2022-11-26T04:33:28.076Z,6.40
2022-11-26T04:35:55.749Z,6.40
2022-11-26T04:38:25.950Z,6.50
2022-11-26T04:40:53.765Z,6.50
2022-11-26T04:43:20.834Z,6.50
2022-11-26T04:45:47.952Z,6.50
2022-11-26T04:48:15.126Z,6.40
2022-11-26T04:50:42.164Z,6.50
2022-11-26T04:53:09.317Z,6.50
2022-11-26T04:55:36.583Z,6.40
2022-11-26T04:58:03.867Z,6.50
2022-11-26T05:00:30.861Z,6.50
2022-11-26T05:02:57.901Z,6.40
2022-11-26T05:05:24.909Z,6.40
2022-11-26T05:07:51.961Z,6.50
2022-11-26T05:10:19.185Z,6.40
2022-11-26T05:12:46.135Z,6.50
2022-11-26T05:15:13.121Z,6.40
2022-11-26T05:17:40.117Z,6.40
2022-11-26T05:20:08.403Z,6.40
2022-11-26T05:22:35.353Z,6.50
2022-11-26T05:25:02.363Z,6.40
2022-11-26T05:27:29.426Z,6.40
2022-11-26T05:29:56.414Z,6.50
2022-11-26T05:32:23.358Z,6.40
2022-11-26T05:34:51.724Z,6.40
2022-11-26T05:39:52.655Z,6.40
2022-11-26T05:42:19.622Z,6.50
2022-11-26T05:44:46.559Z,6.40
2022-11-26T05:47:13.657Z,6.40
2022-11-26T05:49:40.676Z,6.40
2022-11-26T05:52:07.747Z,6.40
2022-11-26T05:54:34.678Z,6.40
2022-11-26T05:57:01.691Z,6.40
2022-11-26T06:04:24.298Z,6.40
2022-11-26T06:11:46.099Z,6.40
2022-11-26T06:14:13.038Z,6.40
2022-11-26T06:16:40.249Z,6.40
2022-11-26T06:19:07.310Z,6.40
2022-11-26T06:24:01.775Z,6.40
2022-11-26T06:26:28.863Z,6.40
2022-11-26T06:28:55.975Z,6.40
2022-11-26T06:33:55.456Z,6.40
2022-11-26T06:41:18.017Z,6.40
2022-11-26T06:43:44.969Z,6.40
2022-11-26T06:46:12.889Z,6.40
2022-11-26T06:48:40.375Z,6.40
2022-11-26T06:51:15.051Z,6.40
2022-11-26T06:53:42.422Z,6.40
2022-11-26T06:56:18.732Z,6.40
2022-11-26T06:58:48.704Z,6.40
2022-11-26T07:01:24.171Z,6.40
2022-11-26T07:06:28.868Z,6.50
2022-11-26T07:09:01.314Z,6.50
2022-11-26T07:11:28.511Z,6.50
2022-11-26T07:16:24.017Z,6.60
2022-11-26T07:18:59.262Z,6.60
2022-11-26T07:21:30.540Z,6.60
2022-11-26T07:28:53.833Z,6.70
2022-11-26T07:31:23.352Z,6.60
2022-11-26T07:33:51.503Z,6.70
2022-11-26T07:36:28.962Z,6.70
2022-11-26T07:38:59.382Z,6.70
2022-11-26T07:41:28.761Z,6.60
2022-11-26T07:43:56.366Z,6.60
2022-11-26T07:46:25.934Z,6.50
2022-11-26T07:48:55.276Z,6.60
2022-11-26T07:51:31.977Z,6.50
2022-11-26T07:54:06.301Z,6.50
2022-11-26T07:56:34.365Z,6.50
2022-11-26T07:59:03.173Z,6.60
2022-11-26T08:01:31.460Z,6.60
2022-11-26T08:04:04.443Z,6.60
2022-11-26T08:09:02.330Z,6.70
2022-11-26T08:11:33.543Z,6.70
2022-11-26T08:14:10.170Z,6.70
2022-11-26T08:16:37.363Z,6.70
2022-11-26T08:19:13.456Z,6.80
2022-11-26T08:21:41.036Z,6.90
2022-11-26T08:24:14.562Z,6.90
2022-11-26T08:26:44.317Z,7.00
2022-11-26T08:29:13.070Z,7.00
2022-11-26T08:31:46.063Z,6.90
2022-11-26T08:34:16.199Z,6.90
2022-11-26T08:36:44.857Z,6.90
2022-11-26T08:39:21.315Z,6.80
2022-11-26T08:41:52.036Z,6.80
2022-11-26T08:44:20.457Z,6.80
2022-11-26T08:49:16.769Z,6.80
2022-11-26T08:51:44.476Z,6.80
2022-11-26T08:59:06.738Z,7.10
2022-11-26T09:03:38.334Z,7.20
2022-11-26T09:06:08.119Z,7.20
2022-11-26T09:08:55.883Z,7.10
2022-11-26T09:11:25.552Z,7.00
2022-11-26T09:13:53.371Z,6.90
2022-11-26T09:16:22.875Z,6.80
2022-11-26T09:18:51.632Z,6.80
2022-11-26T09:21:20.562Z,6.80
2022-11-26T09:23:47.550Z,6.80
2022-11-26T09:28:41.914Z,6.80
2022-11-26T09:36:11.194Z,6.90
2022-11-26T09:38:39.372Z,6.90
2022-11-26T09:41:49.030Z,6.90
2022-11-26T09:44:38.231Z,6.90
2022-11-26T09:47:28.043Z,7.00
2022-11-26T09:50:13.681Z,7.00
2022-11-26T09:52:53.918Z,7.10
2022-11-26T09:55:40.347Z,7.00
2022-11-26T09:58:27.226Z,7.00
2022-11-26T10:00:59.180Z,7.10
2022-11-26T10:03:37.147Z,7.00
2022-11-26T10:06:13.618Z,7.00
2022-11-26T10:09:36.483Z,7.00
2022-11-26T10:16:11.053Z,7.10
2022-11-26T10:19:16.344Z,7.10
2022-11-26T10:21:59.110Z,7.20
2022-11-26T10:24:33.895Z,7.10
2022-11-26T10:27:16.594Z,7.10
2022-11-26T10:29:52.031Z,7.20
2022-11-26T10:32:38.052Z,7.10
2022-11-26T10:35:06.984Z,7.10
2022-11-26T10:40:16.095Z,7.10
2022-11-26T10:42:55.330Z,7.10
2022-11-26T10:45:28.407Z,7.10
2022-11-26T10:48:28.621Z,7.10
2022-11-26T10:51:13.659Z,7.00
2022-11-26T10:54:00.856Z,7.00
2022-11-26T10:56:47.024Z,7.00
2022-11-26T10:59:30.987Z,7.10
2022-11-26T11:02:25.066Z,7.00
2022-11-26T11:04:56.567Z,7.00
2022-11-26T11:07:36.796Z,7.00
2022-11-26T11:10:21.802Z,7.10
2022-11-26T11:13:10.935Z,7.30
2022-11-26T11:15:40.316Z,7.30
2022-11-26T11:18:23.045Z,7.30
2022-11-26T11:21:01.765Z,7.30
2022-11-26T11:24:06.441Z,7.40
2022-11-26T11:26:25.204Z,7.30
2022-11-26T11:28:55.596Z,7.30
2022-11-26T11:31:28.644Z,7.20
2022-11-26T11:34:30.680Z,7.20
2022-11-26T11:37:14.859Z,7.20
2022-11-26T11:39:43.503Z,7.20
2022-11-26T11:42:40.264Z,7.20
2022-11-26T11:45:37.330Z,7.30
2022-11-26T11:48:47.695Z,7.40
2022-11-26T11:52:00.914Z,7.60
2022-11-26T11:54:45.965Z,7.60
2022-11-26T11:57:49.750Z,7.50
2022-11-26T12:00:43.462Z,7.50
2022-11-26T12:03:57.919Z,7.50
2022-11-26T12:06:43.867Z,7.40
2022-11-26T12:09:26.536Z,7.50
2022-11-26T12:12:23.631Z,7.60
2022-11-26T12:15:27.062Z,7.70
2022-11-26T12:20:44.026Z,7.90
2022-11-26T12:23:57.771Z,8.20
2022-11-26T12:27:22.791Z,8.20
2022-11-26T12:30:20.502Z,8.20
2022-11-26T12:33:02.094Z,8.30
2022-11-26T12:35:36.063Z,8.20
2022-11-26T12:38:22.299Z,8.20
2022-11-26T12:41:17.386Z,8.10
2022-11-26T12:44:12.519Z,8.10
2022-11-26T12:47:25.482Z,8.00
2022-11-26T12:50:19.315Z,8.00
2022-11-26T12:53:54.391Z,8.00
2022-11-26T12:56:33.826Z,7.80
2022-11-26T12:59:27.407Z,7.90
2022-11-26T13:01:54.549Z,7.90
2022-11-26T13:04:43.022Z,7.90
2022-11-26T13:07:39.296Z,7.90
2022-11-26T13:14:13.343Z,7.80
2022-11-26T13:16:59.623Z,7.80
2022-11-26T13:19:53.247Z,7.80
2022-11-26T13:23:13.083Z,7.80
2022-11-26T13:29:14.780Z,7.70
2022-11-26T13:32:15.293Z,7.60
2022-11-26T13:35:38.551Z,7.60
2022-11-26T13:38:56.349Z,7.50
2022-11-26T13:42:05.379Z,7.50
2022-11-26T13:45:34.445Z,7.60
2022-11-26T13:48:29.997Z,7.70
2022-11-26T13:51:10.877Z,7.70
2022-11-26T13:54:01.223Z,7.80
2022-11-26T13:56:32.758Z,7.80
2022-11-26T13:59:17.428Z,7.80
2022-11-26T14:01:47.074Z,7.80
2022-11-26T14:04:24.441Z,7.90
2022-11-26T14:07:06.784Z,8.00
2022-11-26T14:09:43.363Z,8.00
2022-11-26T14:12:19.420Z,8.00
2022-11-26T14:14:52.238Z,7.90
2022-11-26T14:17:32.520Z,7.80
2022-11-26T14:20:04.052Z,7.80
2022-11-26T14:22:35.195Z,7.70
2022-11-26T14:25:11.532Z,7.60
2022-11-26T14:27:54.708Z,7.60
2022-11-26T14:30:26.404Z,7.50
2022-11-26T14:33:14.095Z,7.40
2022-11-26T14:35:55.394Z,7.30
2022-11-26T14:38:28.005Z,7.30
2022-11-26T14:41:00.820Z,7.30
2022-11-26T14:43:29.607Z,7.30
2022-11-26T14:46:16.516Z,7.30
2022-11-26T14:48:48.080Z,7.30
2022-11-26T14:51:26.668Z,7.20
2022-11-26T14:53:56.428Z,7.20
2022-11-26T14:56:25.725Z,7.10
2022-11-26T14:58:59.629Z,7.10
2022-11-26T15:01:29.202Z,7.10
2022-11-26T15:04:01.896Z,7.00
2022-11-26T15:06:42.314Z,6.90
2022-11-26T15:09:24.118Z,6.90
2022-11-26T15:12:12.701Z,6.80
2022-11-26T15:14:56.125Z,6.70
2022-11-26T15:17:27.681Z,6.70
2022-11-26T15:19:59.703Z,6.70
2022-11-26T15:22:44.311Z,6.60
2022-11-26T15:25:31.930Z,6.50
2022-11-26T15:28:06.848Z,6.50
2022-11-26T15:30:37.939Z,6.40
2022-11-26T15:33:14.325Z,6.30
2022-11-26T15:35:43.579Z,6.30
2022-11-26T15:38:17.926Z,6.20
2022-11-26T15:40:56.639Z,6.20
2022-11-26T15:43:33.174Z,6.20
2022-11-26T15:46:23.346Z,6.10
2022-11-26T15:48:59.074Z,6.10
2022-11-26T15:51:51.283Z,5.90
2022-11-26T15:55:10.839Z,5.80
2022-11-26T15:57:33.894Z,5.80
2022-11-26T16:00:40.427Z,5.70
2022-11-26T16:03:34.630Z,5.70
2022-11-26T16:06:04.973Z,5.60
2022-11-26T16:08:32.308Z,5.60
2022-11-26T16:11:17.621Z,5.50
2022-11-26T16:13:44.640Z,5.50
2022-11-26T16:16:25.771Z,5.50
2022-11-26T16:19:01.666Z,5.50
2022-11-26T16:21:33.027Z,5.40
2022-11-26T16:24:15.715Z,5.50
2022-11-26T16:27:23.191Z,5.60
2022-11-26T16:29:50.307Z,5.70
2022-11-26T16:32:19.425Z,5.70
2022-11-26T16:34:46.456Z,5.70
2022-11-26T16:37:34.024Z,5.70
2022-11-26T16:40:16.573Z,5.70
2022-11-26T16:42:43.579Z,5.70
2022-11-26T16:45:13.078Z,5.80
2022-11-26T16:47:53.777Z,5.70
2022-11-26T16:50:25.911Z,5.80
2022-11-26T16:52:55.046Z,5.80
2022-11-26T16:55:26.905Z,5.80
2022-11-26T16:57:58.775Z,5.80
2022-11-26T17:00:27.051Z,5.70
2022-11-26T17:02:54.395Z,5.80
2022-11-26T17:05:22.541Z,5.80
2022-11-26T17:07:56.019Z,5.80
2022-11-26T17:10:28.388Z,5.70
2022-11-26T17:12:56.237Z,5.80
2022-11-26T17:15:23.316Z,5.80
2022-11-26T17:17:54.576Z,5.80
2022-11-26T17:20:25.457Z,5.70
2022-11-26T17:22:53.036Z,5.70
2022-11-26T17:25:20.897Z,5.70
2022-11-26T17:27:48.677Z,5.80
2022-11-26T17:30:23.357Z,5.80
2022-11-26T17:32:51.637Z,5.70
2022-11-26T17:35:19.193Z,5.80
2022-11-26T17:37:46.708Z,5.80
2022-11-26T17:40:32.418Z,5.70
2022-11-26T17:42:59.417Z,5.70
2022-11-26T17:45:26.401Z,5.70
2022-11-26T17:47:53.417Z,5.60
2022-11-26T17:50:26.036Z,5.60
2022-11-26T17:52:54.760Z,5.60
2022-11-26T17:55:26.864Z,1.60
2022-11-26T17:57:55.303Z,5.70
2022-11-26T18:00:30.813Z,5.70
2022-11-26T18:02:58.773Z,5.60
2022-11-26T18:10:23.673Z,5.60
2022-11-26T18:12:54.381Z,5.60
2022-11-26T18:15:26.354Z,5.60
2022-11-26T18:17:55.571Z,5.60
2022-11-26T18:20:28.502Z,5.60
2022-11-26T18:22:59.798Z,5.60
2022-11-26T18:25:29.017Z,5.60
2022-11-26T18:27:56.453Z,5.60
2022-11-26T18:35:19.329Z,5.60
2022-11-26T18:37:46.303Z,5.60
2022-11-26T18:40:17.647Z,5.60
2022-11-26T18:42:45.099Z,5.60
2022-11-26T18:45:15.583Z,5.60
2022-11-26T18:47:43.035Z,5.60
2022-11-26T18:52:38.714Z,5.50
2022-11-26T18:55:08.076Z,5.50
2022-11-26T18:57:35.630Z,5.50
2022-11-26T19:02:31.708Z,5.40
2022-11-26T19:04:58.741Z,5.40
2022-11-26T19:07:25.965Z,5.50
2022-11-26T19:12:20.520Z,5.40
2022-11-26T19:17:15.094Z,5.40
2022-11-26T19:19:42.358Z,5.30
2022-11-26T19:22:09.435Z,5.30
2022-11-26T19:24:36.403Z,5.20
2022-11-26T19:27:03.397Z,5.20
2022-11-26T19:29:30.632Z,5.10
2022-11-26T19:31:57.587Z,5.20
2022-11-26T19:34:24.563Z,5.10
2022-11-26T19:39:23.484Z,5.10
2022-11-26T19:41:50.437Z,5.00
2022-11-26T19:44:17.549Z,5.00
2022-11-26T19:46:44.640Z,4.80
2022-11-26T19:49:12.935Z,4.80
2022-11-26T19:51:40.416Z,4.80
2022-11-26T19:54:08.143Z,4.70
2022-11-26T19:56:36.365Z,4.70
2022-11-26T19:59:04.180Z,4.70
2022-11-26T20:01:34.169Z,4.50
2022-11-26T20:04:06.716Z,4.40
2022-11-26T20:06:36.091Z,4.40
2022-11-26T20:09:06.676Z,4.30
2022-11-26T20:11:38.875Z,4.20
2022-11-26T20:16:43.854Z,4.10
2022-11-26T20:19:12.348Z,4.10
2022-11-26T20:21:39.701Z,4.00
2022-11-26T20:24:14.989Z,4.00
2022-11-26T20:26:45.497Z,3.90
2022-11-26T20:29:16.921Z,3.80
2022-11-26T20:31:49.065Z,3.80
2022-11-26T20:34:26.505Z,3.80
2022-11-26T20:36:54.225Z,3.70
2022-11-26T20:39:23.589Z,3.80
2022-11-26T20:41:51.160Z,3.70
2022-11-26T20:44:18.297Z,3.70
2022-11-26T20:46:45.401Z,3.50
2022-11-26T20:49:12.416Z,3.40
2022-11-26T20:56:34.406Z,3.00
2022-11-26T20:59:02.227Z,2.90
2022-11-26T21:01:31.324Z,2.70
2022-11-26T21:06:31.728Z,2.80
2022-11-26T21:09:05.392Z,2.70
2022-11-26T21:14:01.581Z,2.40
2022-11-26T21:16:30.148Z,2.30
2022-11-26T21:18:58.092Z,2.30
2022-11-26T21:21:28.147Z,2.30
2022-11-26T21:24:02.466Z,2.20
2022-11-26T21:26:33.446Z,2.20
2022-11-26T21:29:03.775Z,2.10
2022-11-26T21:31:32.705Z,2.10
2022-11-26T21:34:03.843Z,2.20
2022-11-26T21:36:35.299Z,2.40
2022-11-26T21:39:03.578Z,2.30
2022-11-26T21:46:37.542Z,2.20
2022-11-26T21:51:33.326Z,1.80
2022-11-26T21:56:31.919Z,1.50
2022-11-26T21:59:01.395Z,1.40
2022-11-26T22:01:36.143Z,1.30
2022-11-26T22:04:17.658Z,1.20
2022-11-26T22:06:47.907Z,1.10
2022-11-26T22:09:16.754Z,1.10
2022-11-26T22:11:45.713Z,1.10
2022-11-26T22:14:16.460Z,1.00
2022-11-26T22:16:43.663Z,1.00
2022-11-26T22:19:10.713Z,1.10
2022-11-26T22:21:41.623Z,1.20
2022-11-26T22:24:17.082Z,1.20
2022-11-26T22:26:45.161Z,1.10
2022-11-26T22:29:15.786Z,1.00
2022-11-26T22:34:16.788Z,0.90
2022-11-26T22:36:46.084Z,0.90
2022-11-26T22:39:17.483Z,0.90
2022-11-26T22:41:47.024Z,0.90
2022-11-26T22:44:15.911Z,0.80
2022-11-26T22:46:43.079Z,0.90
2022-11-26T22:49:18.676Z,0.90
2022-11-26T22:54:16.516Z,0.90
2022-11-26T22:56:43.517Z,0.90
2022-11-26T22:59:13.805Z,0.90
2022-11-26T23:01:40.970Z,0.90
2022-11-26T23:04:10.741Z,0.80
2022-11-26T23:06:39.228Z,0.70
2022-11-26T23:09:09.515Z,0.50
2022-11-26T23:11:41.062Z,0.50
2022-11-26T23:14:11.643Z,0.60
2022-11-26T23:16:41.942Z,0.50
2022-11-26T23:19:12.724Z,0.50
2022-11-26T23:21:42.571Z,-2.60
2022-11-26T23:24:10.519Z,0.50
2022-11-26T23:26:40.212Z,0.50
2022-11-26T23:29:08.736Z,0.40
2022-11-26T23:31:43.157Z,0.40
2022-11-26T23:34:10.829Z,0.30
2022-11-26T23:39:10.457Z,0.40
2022-11-26T23:41:37.535Z,0.40
2022-11-26T23:46:35.181Z,0.30
2022-11-26T23:49:02.582Z,0.30
2022-11-26T23:51:32.507Z,0.30
2022-11-26T23:53:59.996Z,0.20
2022-11-26T23:56:33.614Z,0.10
2022-11-26T23:59:04.163Z,0.00
